createdAt,value
2022-10-06T00:01:04.891Z,78.24
2022-10-06T00:03:31.594Z,78.26
2022-10-06T00:06:02.347Z,78.31
2022-10-06T00:08:31.184Z,78.46
2022-10-06T00:10:57.986Z,78.62
2022-10-06T00:13:25.116Z,78.87
2022-10-06T00:15:51.683Z,79.21
2022-10-06T00:18:18.268Z,79.41
2022-10-06T00:20:44.699Z,79.43
2022-10-06T00:23:11.624Z,79.41
2022-10-06T00:25:38.078Z,79.45
2022-10-06T00:28:04.533Z,79.29
2022-10-06T00:30:31.237Z,79.52
2022-10-06T00:33:03.463Z,79.73
2022-10-06T00:35:33.650Z,79.97
2022-10-06T00:38:03.600Z,80.02
2022-10-06T00:40:30.759Z,80.28
2022-10-06T00:42:59.562Z,80.44
2022-10-06T00:45:41.627Z,80.70
2022-10-06T00:48:28.617Z,80.71
2022-10-06T00:50:56.811Z,80.72
2022-10-06T00:53:25.009Z,80.62
2022-10-06T00:55:53.275Z,80.68
2022-10-06T00:58:20.572Z,80.58
2022-10-06T01:00:47.993Z,80.50
2022-10-06T01:03:17.678Z,80.36
2022-10-06T01:05:47.171Z,80.21
2022-10-06T01:08:14.246Z,80.10
2022-10-06T01:10:40.647Z,80.00
2022-10-06T01:13:07.716Z,79.91
2022-10-06T01:15:34.403Z,80.04
2022-10-06T01:18:04.727Z,80.03
2022-10-06T01:20:31.326Z,80.03
2022-10-06T01:23:05.164Z,80.28
2022-10-06T01:25:33.058Z,80.31
2022-10-06T01:28:01.081Z,80.30
2022-10-06T01:30:57.137Z,80.52
2022-10-06T01:33:23.750Z,80.72
2022-10-06T01:35:52.028Z,80.67
2022-10-06T01:38:18.671Z,80.78
2022-10-06T01:40:45.139Z,80.73
2022-10-06T01:43:11.808Z,80.90
2022-10-06T01:45:38.609Z,80.61
2022-10-06T01:48:06.397Z,81.13
2022-10-06T01:50:32.858Z,80.98
2022-10-06T01:52:59.340Z,80.94
2022-10-06T01:55:26.072Z,80.93
2022-10-06T01:57:52.460Z,80.92
2022-10-06T02:00:19.376Z,80.90
2022-10-06T02:02:45.865Z,81.03
2022-10-06T02:05:12.439Z,81.03
2022-10-06T02:07:39.026Z,81.53
2022-10-06T02:10:06.799Z,81.64
2022-10-06T02:12:33.237Z,82.42
2022-10-06T02:14:59.633Z,82.89
2022-10-06T02:17:26.097Z,83.26
2022-10-06T02:19:52.499Z,83.70
2022-10-06T02:22:18.898Z,84.51
2022-10-06T02:24:45.299Z,86.36
2022-10-06T02:27:11.734Z,86.87
2022-10-06T02:29:38.121Z,86.01
2022-10-06T02:32:05.156Z,85.82
2022-10-06T02:34:31.607Z,84.41
2022-10-06T02:36:58.018Z,82.51
2022-10-06T02:39:24.431Z,77.63
2022-10-06T02:41:50.854Z,76.16
2022-10-06T02:44:17.426Z,74.92
2022-10-06T02:46:43.950Z,73.25
2022-10-06T02:49:10.413Z,71.85
2022-10-06T02:51:36.812Z,71.03
2022-10-06T02:54:03.338Z,67.62
2022-10-06T02:56:29.757Z,66.46
2022-10-06T02:58:56.181Z,66.12
2022-10-06T03:01:25.557Z,66.10
2022-10-06T03:03:52.581Z,65.88
2022-10-06T03:06:24.491Z,65.76
2022-10-06T03:08:55.968Z,66.15
2022-10-06T03:11:42.658Z,66.64
2022-10-06T03:14:09.164Z,67.20
2022-10-06T03:16:41.433Z,67.43
2022-10-06T03:19:09.233Z,67.87
2022-10-06T03:21:38.413Z,68.00
2022-10-06T03:24:05.086Z,68.42
2022-10-06T03:26:34.024Z,68.99
2022-10-06T03:29:00.521Z,69.33
2022-10-06T03:31:27.313Z,69.68
2022-10-06T03:33:56.776Z,70.22
2022-10-06T03:36:25.373Z,70.65
2022-10-06T03:38:52.111Z,70.90
2022-10-06T03:41:21.081Z,70.79
2022-10-06T03:43:49.488Z,70.73
2022-10-06T03:46:19.804Z,71.17
2022-10-06T03:48:47.259Z,70.84
2022-10-06T03:51:15.767Z,71.13
2022-10-06T03:53:46.170Z,71.32
2022-10-06T03:56:31.374Z,71.69
2022-10-06T03:59:00.097Z,71.76
2022-10-06T04:01:33.252Z,72.35
2022-10-06T04:04:00.497Z,72.35
2022-10-06T04:06:29.001Z,72.85
2022-10-06T04:08:55.781Z,72.67
2022-10-06T04:11:33.449Z,72.08
2022-10-06T04:14:08.054Z,72.03
2022-10-06T04:16:37.144Z,72.16
2022-10-06T04:19:06.633Z,72.21
2022-10-06T04:21:36.616Z,72.50
2022-10-06T04:24:03.798Z,72.53
2022-10-06T04:26:33.590Z,72.81
2022-10-06T04:29:02.783Z,72.93
2022-10-06T04:31:32.944Z,72.96
2022-10-06T04:34:00.705Z,73.34
2022-10-06T04:36:32.483Z,73.48
2022-10-06T04:39:01.356Z,73.85
2022-10-06T04:41:30.082Z,73.79
2022-10-06T04:43:56.500Z,73.97
2022-10-06T04:46:42.178Z,74.38
2022-10-06T04:49:13.350Z,74.70
2022-10-06T04:51:44.360Z,74.67
2022-10-06T04:54:10.838Z,75.00
2022-10-06T04:56:37.249Z,74.92
2022-10-06T04:59:03.732Z,75.08
2022-10-06T05:01:32.372Z,75.12
2022-10-06T05:04:00.953Z,75.22
2022-10-06T05:06:30.132Z,75.06
2022-10-06T05:09:01.469Z,75.37
2022-10-06T05:11:28.471Z,75.34
2022-10-06T05:13:56.462Z,75.36
2022-10-06T05:16:24.776Z,75.75
2022-10-06T05:18:51.274Z,75.75
2022-10-06T05:21:28.589Z,75.86
2022-10-06T05:23:55.001Z,76.14
2022-10-06T05:26:23.566Z,76.05
2022-10-06T05:28:50.374Z,76.27
2022-10-06T05:31:26.710Z,76.51
2022-10-06T05:33:53.699Z,76.63
2022-10-06T05:36:24.823Z,76.86
2022-10-06T05:38:51.411Z,76.89
2022-10-06T05:41:21.005Z,77.30
2022-10-06T05:43:47.999Z,77.31
2022-10-06T05:46:24.696Z,77.39
2022-10-06T05:48:52.852Z,77.65
2022-10-06T05:51:20.393Z,77.66
2022-10-06T05:53:47.532Z,77.68
2022-10-06T05:56:16.810Z,77.66
2022-10-06T05:58:45.321Z,77.86
2022-10-06T06:01:14.789Z,77.60
2022-10-06T06:03:42.698Z,77.69
2022-10-06T06:06:19.114Z,77.66
2022-10-06T06:08:45.843Z,77.78
2022-10-06T06:11:12.432Z,77.85
2022-10-06T06:13:38.894Z,77.74
2022-10-06T06:16:07.074Z,77.52
2022-10-06T06:18:36.612Z,77.49
2022-10-06T06:21:06.045Z,77.47
2022-10-06T06:23:35.100Z,77.55
2022-10-06T06:26:04.431Z,77.06
2022-10-06T06:28:32.055Z,76.93
2022-10-06T06:31:02.548Z,76.94
2022-10-06T06:33:31.062Z,76.40
2022-10-06T06:35:58.052Z,76.32
2022-10-06T06:38:24.542Z,76.37
2022-10-06T06:40:51.051Z,76.26
2022-10-06T06:43:17.449Z,76.16
2022-10-06T06:45:43.906Z,75.86
2022-10-06T06:48:16.696Z,75.71
2022-10-06T06:50:43.990Z,75.72
2022-10-06T06:53:15.355Z,75.72
2022-10-06T06:55:52.578Z,75.58
2022-10-06T06:58:20.096Z,75.69
2022-10-06T07:00:48.109Z,75.46
2022-10-06T07:03:32.861Z,75.49
2022-10-06T07:06:11.026Z,74.91
2022-10-06T07:08:39.040Z,74.92
2022-10-06T07:11:32.223Z,74.58
2022-10-06T07:14:04.387Z,74.01
2022-10-06T07:16:49.850Z,73.89
2022-10-06T07:19:36.529Z,73.49
2022-10-06T07:22:23.635Z,73.33
2022-10-06T07:25:08.094Z,72.83
2022-10-06T07:27:37.519Z,72.92
2022-10-06T07:30:05.392Z,72.73
2022-10-06T07:32:31.935Z,72.81
2022-10-06T07:35:01.239Z,72.35
2022-10-06T07:37:28.815Z,72.04
2022-10-06T07:39:55.655Z,71.92
2022-10-06T07:42:22.133Z,71.08
2022-10-06T07:45:07.108Z,70.79
2022-10-06T07:47:33.812Z,70.34
2022-10-06T07:50:00.449Z,69.93
2022-10-06T07:52:30.442Z,69.24
2022-10-06T07:54:58.332Z,68.76
2022-10-06T07:57:30.135Z,68.57
2022-10-06T08:00:01.919Z,68.01
2022-10-06T08:02:31.551Z,68.02
2022-10-06T08:05:01.204Z,66.56
2022-10-06T08:07:27.614Z,66.78
2022-10-06T08:09:54.085Z,66.82
2022-10-06T08:12:40.479Z,66.53
2022-10-06T08:15:08.342Z,66.68
2022-10-06T08:17:36.544Z,66.53
2022-10-06T08:20:05.423Z,63.03
2022-10-06T08:22:32.512Z,60.01
2022-10-06T08:25:06.200Z,59.96
2022-10-06T08:27:34.950Z,58.67
2022-10-06T08:30:01.762Z,58.86
2022-10-06T08:32:28.207Z,58.36
2022-10-06T08:34:54.847Z,56.48
2022-10-06T08:37:23.779Z,56.08
2022-10-06T08:39:51.279Z,56.60
2022-10-06T08:42:25.771Z,56.80
2022-10-06T08:44:57.836Z,55.18
2022-10-06T08:47:27.342Z,54.99
2022-10-06T08:49:57.122Z,55.21
2022-10-06T08:52:51.083Z,55.87
2022-10-06T08:55:34.266Z,55.95
2022-10-06T08:58:30.757Z,56.80
2022-10-06T09:01:20.086Z,56.42
2022-10-06T09:03:48.918Z,55.63
2022-10-06T09:06:42.623Z,55.28
2022-10-06T09:09:33.600Z,55.16
2022-10-06T09:12:09.991Z,55.31
2022-10-06T09:14:43.252Z,55.55
2022-10-06T09:17:12.905Z,54.08
2022-10-06T09:19:57.203Z,54.95
2022-10-06T09:22:24.332Z,54.05
2022-10-06T09:24:57.895Z,53.79
2022-10-06T09:27:30.399Z,53.90
2022-10-06T09:29:57.239Z,52.91
2022-10-06T09:32:26.933Z,53.64
2022-10-06T09:34:55.857Z,53.53
2022-10-06T09:37:23.000Z,52.35
2022-10-06T09:39:51.482Z,52.58
2022-10-06T09:42:21.907Z,52.91
2022-10-06T09:44:51.387Z,52.02
2022-10-06T09:47:40.751Z,52.15
2022-10-06T09:50:15.752Z,51.92
2022-10-06T09:52:44.037Z,51.38
2022-10-06T09:55:13.467Z,50.62
2022-10-06T09:57:49.163Z,49.56
2022-10-06T10:00:34.707Z,49.54
2022-10-06T10:03:19.264Z,49.90
2022-10-06T10:05:50.657Z,48.81
2022-10-06T10:08:22.330Z,48.94
2022-10-06T10:10:50.485Z,48.44
2022-10-06T10:13:20.125Z,48.50
2022-10-06T10:15:57.789Z,48.69
2022-10-06T10:18:30.243Z,49.24
2022-10-06T10:20:57.928Z,50.04
2022-10-06T10:23:33.363Z,47.85
2022-10-06T10:26:16.175Z,47.74
2022-10-06T10:28:54.847Z,48.29
2022-10-06T10:31:41.656Z,47.39
2022-10-06T10:34:26.952Z,46.76
2022-10-06T10:36:57.232Z,47.38
2022-10-06T10:39:35.529Z,47.93
2022-10-06T10:42:07.355Z,48.63
2022-10-06T10:44:38.355Z,48.71
2022-10-06T10:47:15.202Z,48.95
2022-10-06T10:49:45.682Z,49.44
2022-10-06T10:52:15.769Z,48.90
2022-10-06T10:54:56.066Z,49.34
2022-10-06T10:57:26.190Z,47.50
2022-10-06T11:00:01.399Z,47.43
2022-10-06T11:02:28.794Z,48.06
2022-10-06T11:05:25.406Z,48.30
2022-10-06T11:08:16.742Z,48.12
2022-10-06T11:10:59.412Z,48.29
2022-10-06T11:13:37.782Z,46.91
2022-10-06T11:16:32.173Z,45.01
2022-10-06T11:19:15.768Z,46.95
2022-10-06T11:22:01.818Z,47.54
2022-10-06T11:24:52.474Z,47.98
2022-10-06T11:27:41.295Z,48.60
2022-10-06T11:30:26.152Z,48.38
2022-10-06T11:33:07.903Z,48.24
2022-10-06T11:35:36.678Z,47.83
2022-10-06T11:38:21.894Z,48.38
2022-10-06T11:41:21.142Z,47.99
2022-10-06T11:43:58.010Z,47.65
2022-10-06T11:46:35.604Z,47.06
2022-10-06T11:49:30.160Z,46.62
2022-10-06T11:52:08.067Z,46.47
2022-10-06T11:54:44.496Z,46.23
2022-10-06T11:57:26.235Z,45.98
2022-10-06T12:00:17.319Z,46.61
2022-10-06T12:02:45.966Z,46.24
2022-10-06T12:05:37.653Z,46.43
2022-10-06T12:08:02.707Z,45.87
2022-10-06T12:10:29.027Z,46.13
2022-10-06T12:13:40.075Z,45.62
2022-10-06T12:19:19.983Z,45.55
2022-10-06T12:21:53.917Z,45.36
2022-10-06T12:24:33.034Z,45.30
2022-10-06T12:27:02.828Z,45.00
2022-10-06T12:29:52.218Z,45.44
2022-10-06T12:32:37.402Z,45.58
2022-10-06T12:35:32.410Z,44.98
2022-10-06T12:38:05.925Z,44.20
2022-10-06T12:40:39.692Z,43.58
2022-10-06T12:43:12.182Z,43.97
2022-10-06T12:45:45.899Z,44.48
2022-10-06T12:48:18.278Z,44.61
2022-10-06T12:50:45.188Z,45.17
2022-10-06T12:53:20.693Z,43.91
2022-10-06T12:55:51.561Z,44.49
2022-10-06T12:58:20.348Z,44.62
2022-10-06T13:00:47.244Z,44.67
2022-10-06T13:03:17.651Z,44.98
2022-10-06T13:05:50.814Z,45.18
2022-10-06T13:08:23.344Z,45.45
2022-10-06T13:10:49.771Z,44.92
2022-10-06T13:13:24.645Z,43.79
2022-10-06T13:15:55.666Z,43.55
2022-10-06T13:18:22.989Z,44.75
2022-10-06T13:20:51.456Z,44.89
2022-10-06T13:23:35.182Z,44.66
2022-10-06T13:26:04.510Z,43.59
2022-10-06T13:28:36.812Z,43.31
2022-10-06T13:31:11.857Z,42.85
2022-10-06T13:33:39.956Z,42.26
2022-10-06T13:36:07.502Z,42.25
2022-10-06T13:38:35.874Z,42.72
2022-10-06T13:41:19.276Z,42.92
2022-10-06T13:44:21.623Z,42.88
2022-10-06T13:47:22.462Z,42.45
2022-10-06T13:50:03.158Z,42.62
2022-10-06T13:52:41.082Z,42.11
2022-10-06T13:55:20.348Z,42.47
2022-10-06T13:57:48.729Z,42.35
2022-10-06T14:00:15.235Z,42.43
2022-10-06T14:02:46.895Z,42.68
2022-10-06T14:05:40.127Z,42.10
2022-10-06T14:08:09.461Z,42.24
2022-10-06T14:10:46.314Z,42.72
2022-10-06T14:13:26.939Z,41.92
2022-10-06T14:15:59.290Z,42.40
2022-10-06T14:18:38.985Z,42.63
2022-10-06T14:21:18.916Z,42.52
2022-10-06T14:23:52.814Z,41.81
2022-10-06T14:26:24.419Z,41.67
2022-10-06T14:28:52.858Z,42.13
2022-10-06T14:31:20.271Z,41.82
2022-10-06T14:33:49.268Z,41.97
2022-10-06T14:36:23.214Z,41.80
2022-10-06T14:38:50.854Z,42.09
2022-10-06T14:41:24.729Z,41.51
2022-10-06T14:44:11.239Z,41.26
2022-10-06T14:46:42.099Z,41.52
2022-10-06T14:49:10.436Z,42.14
2022-10-06T14:51:37.914Z,42.79
2022-10-06T14:54:05.227Z,42.96
2022-10-06T14:56:33.529Z,42.94
2022-10-06T14:59:02.979Z,42.81
2022-10-06T15:01:29.919Z,42.57
2022-10-06T15:03:58.698Z,41.79
2022-10-06T15:06:43.906Z,41.76
2022-10-06T15:09:10.922Z,41.72
2022-10-06T15:11:38.395Z,42.06
2022-10-06T15:14:05.857Z,42.24
2022-10-06T15:16:33.346Z,42.60
2022-10-06T15:19:00.428Z,42.43
2022-10-06T15:21:27.516Z,42.29
2022-10-06T15:23:56.109Z,42.15
2022-10-06T15:26:41.231Z,43.07
2022-10-06T15:29:07.748Z,42.17
2022-10-06T15:31:36.114Z,41.96
2022-10-06T15:34:04.920Z,42.50
2022-10-06T15:36:38.961Z,42.65
2022-10-06T15:39:16.641Z,42.55
2022-10-06T15:41:43.560Z,42.95
2022-10-06T15:44:11.259Z,43.04
2022-10-06T15:46:40.036Z,43.46
2022-10-06T15:49:14.154Z,43.13
2022-10-06T15:51:49.062Z,43.17
2022-10-06T15:54:23.914Z,43.60
2022-10-06T15:57:01.303Z,43.73
2022-10-06T15:59:32.325Z,43.63
2022-10-06T16:02:02.543Z,43.85
2022-10-06T16:04:53.829Z,43.85
2022-10-06T16:07:20.758Z,43.98
2022-10-06T16:09:48.961Z,43.96
2022-10-06T16:12:17.933Z,44.21
2022-10-06T16:14:44.621Z,44.44
2022-10-06T16:17:12.230Z,44.51
2022-10-06T16:19:40.224Z,44.64
2022-10-06T16:22:08.807Z,44.62
2022-10-06T16:24:35.305Z,44.88
2022-10-06T16:27:01.761Z,44.92
2022-10-06T16:29:28.426Z,44.99
2022-10-06T16:31:55.104Z,45.23
2022-10-06T16:34:21.781Z,45.39
2022-10-06T16:36:48.182Z,45.61
2022-10-06T16:39:16.834Z,45.90
2022-10-06T16:41:43.600Z,45.91
2022-10-06T16:44:10.668Z,46.34
2022-10-06T16:46:37.343Z,46.56
2022-10-06T16:49:04.565Z,46.57
2022-10-06T16:51:42.717Z,46.77
2022-10-06T16:54:11.356Z,46.91
2022-10-06T16:56:43.545Z,47.22
2022-10-06T16:59:15.340Z,47.40
2022-10-06T17:01:41.965Z,47.63
2022-10-06T17:04:16.918Z,47.85
2022-10-06T17:06:48.617Z,48.24
2022-10-06T17:09:17.266Z,48.30
2022-10-06T17:11:46.442Z,48.64
2022-10-06T17:14:13.543Z,48.82
2022-10-06T17:16:42.505Z,49.41
2022-10-06T17:19:10.533Z,49.72
2022-10-06T17:21:57.638Z,50.41
2022-10-06T17:24:25.469Z,51.21
2022-10-06T17:26:52.769Z,51.40
2022-10-06T17:29:22.999Z,51.83
2022-10-06T17:31:53.252Z,51.83
2022-10-06T17:34:22.487Z,52.37
2022-10-06T17:36:51.791Z,52.50
2022-10-06T17:39:21.047Z,52.87
2022-10-06T17:41:48.857Z,53.30
2022-10-06T17:44:19.794Z,53.64
2022-10-06T17:46:47.112Z,54.26
2022-10-06T17:49:15.997Z,54.00
2022-10-06T17:51:45.195Z,54.22
2022-10-06T17:54:16.131Z,54.45
2022-10-06T17:56:43.706Z,54.61
2022-10-06T17:59:16.436Z,54.78
2022-10-06T18:01:45.366Z,54.98
2022-10-06T18:04:15.574Z,55.32
2022-10-06T18:06:42.953Z,55.90
2022-10-06T18:09:09.671Z,55.73
2022-10-06T18:11:38.162Z,55.57
2022-10-06T18:14:16.546Z,55.73
2022-10-06T18:16:45.673Z,56.16
2022-10-06T18:19:16.561Z,56.15
2022-10-06T18:21:44.719Z,56.22
2022-10-06T18:24:16.079Z,56.44
2022-10-06T18:26:43.990Z,57.24
2022-10-06T18:29:10.974Z,57.38
2022-10-06T18:31:38.523Z,57.33
2022-10-06T18:36:52.738Z,57.66
2022-10-06T18:39:19.166Z,57.91
2022-10-06T18:41:46.341Z,57.94
2022-10-06T18:44:12.801Z,57.76
2022-10-06T18:46:57.796Z,57.95
2022-10-06T18:49:24.706Z,59.02
2022-10-06T18:51:57.912Z,59.10
2022-10-06T18:54:27.009Z,59.12
2022-10-06T18:56:54.661Z,58.73
2022-10-06T18:59:31.309Z,58.75
2022-10-06T19:02:00.255Z,59.01
2022-10-06T19:04:26.826Z,59.14
2022-10-06T19:06:54.905Z,59.69
2022-10-06T19:09:23.565Z,59.38
2022-10-06T19:11:52.848Z,59.33
2022-10-06T19:14:27.170Z,59.58
2022-10-06T19:16:58.992Z,59.51
2022-10-06T19:19:27.059Z,60.39
2022-10-06T19:21:59.388Z,60.02
2022-10-06T19:24:28.444Z,59.99
2022-10-06T19:26:57.173Z,60.39
2022-10-06T19:29:26.550Z,60.73
2022-10-06T19:31:57.602Z,60.89
2022-10-06T19:34:24.943Z,61.20
2022-10-06T19:36:54.902Z,61.58
2022-10-06T19:39:23.577Z,61.76
2022-10-06T19:42:09.600Z,62.12
2022-10-06T19:44:42.618Z,62.04
2022-10-06T19:47:12.137Z,61.87
2022-10-06T19:49:38.568Z,61.86
2022-10-06T19:52:06.382Z,62.25
2022-10-06T19:54:32.813Z,62.57
2022-10-06T19:57:04.548Z,62.97
2022-10-06T19:59:31.848Z,63.13
2022-10-06T20:01:58.240Z,63.06
2022-10-06T20:04:25.192Z,62.47
2022-10-06T20:06:52.636Z,62.48
2022-10-06T20:09:22.134Z,62.70
2022-10-06T20:11:50.449Z,62.68
2022-10-06T20:14:22.530Z,62.96
2022-10-06T20:16:53.766Z,62.83
2022-10-06T20:19:20.999Z,62.61
2022-10-06T20:21:48.328Z,62.25
2022-10-06T20:24:18.604Z,62.31
2022-10-06T20:26:47.841Z,62.54
2022-10-06T20:29:25.916Z,62.81
2022-10-06T20:31:54.407Z,62.83
2022-10-06T20:34:23.757Z,63.04
2022-10-06T20:36:55.724Z,63.23
2022-10-06T20:39:41.226Z,62.76
2022-10-06T20:42:12.212Z,62.51
2022-10-06T20:44:42.031Z,62.40
2022-10-06T20:47:08.876Z,63.31
2022-10-06T20:49:35.310Z,64.22
2022-10-06T20:52:03.161Z,64.28
2022-10-06T20:54:34.745Z,64.23
2022-10-06T20:57:03.498Z,64.21
2022-10-06T20:59:30.287Z,64.55
2022-10-06T21:02:00.023Z,64.72
2022-10-06T21:04:27.669Z,64.69
2022-10-06T21:06:54.253Z,64.63
2022-10-06T21:09:20.918Z,64.66
2022-10-06T21:11:48.105Z,64.87
2022-10-06T21:14:15.131Z,64.73
2022-10-06T21:16:43.419Z,64.98
2022-10-06T21:19:14.242Z,65.06
2022-10-06T21:21:41.780Z,65.24
2022-10-06T21:24:09.818Z,64.99
2022-10-06T21:26:38.666Z,64.71
2022-10-06T21:29:05.265Z,65.05
2022-10-06T21:31:33.202Z,65.10
2022-10-06T21:34:01.368Z,64.77
2022-10-06T21:36:31.295Z,64.79
2022-10-06T21:38:59.256Z,65.09
2022-10-06T21:41:31.924Z,64.72
2022-10-06T21:44:03.376Z,65.07
2022-10-06T21:46:37.928Z,65.02
2022-10-06T21:49:12.829Z,65.52
2022-10-06T21:51:40.369Z,66.13
2022-10-06T21:54:06.917Z,66.02
2022-10-06T21:56:34.001Z,65.97
2022-10-06T21:59:01.013Z,66.38
2022-10-06T22:01:32.569Z,65.99
2022-10-06T22:04:02.638Z,66.07
2022-10-06T22:06:30.710Z,65.99
2022-10-06T22:08:58.361Z,66.25
2022-10-06T22:11:30.038Z,66.45
2022-10-06T22:14:01.666Z,66.38
2022-10-06T22:16:30.355Z,66.03
2022-10-06T22:18:57.365Z,66.30
2022-10-06T22:21:25.984Z,66.58
2022-10-06T22:23:56.576Z,66.86
2022-10-06T22:26:24.050Z,66.87
2022-10-06T22:28:52.140Z,66.89
2022-10-06T22:31:23.338Z,67.09
2022-10-06T22:33:57.826Z,67.41
2022-10-06T22:36:25.248Z,67.18
2022-10-06T22:38:52.157Z,67.10
2022-10-06T22:41:18.943Z,67.10
2022-10-06T22:43:45.576Z,66.94
2022-10-06T22:46:12.365Z,66.82
2022-10-06T22:48:39.351Z,66.93
2022-10-06T22:51:06.500Z,66.90
2022-10-06T22:53:33.942Z,67.22
2022-10-06T22:56:01.770Z,67.07
2022-10-06T22:58:28.445Z,66.89
2022-10-06T23:00:55.186Z,67.19
2022-10-06T23:03:22.318Z,67.38
2022-10-06T23:06:00.236Z,67.41
2022-10-06T23:08:32.709Z,67.54
2022-10-06T23:11:16.563Z,67.41
2022-10-06T23:13:43.505Z,67.38
2022-10-06T23:16:11.818Z,67.16
2022-10-06T23:18:39.877Z,67.53
2022-10-06T23:21:19.098Z,67.34
2022-10-06T23:23:46.352Z,67.27
2022-10-06T23:26:14.423Z,67.16
2022-10-06T23:28:41.395Z,66.97
2022-10-06T23:31:09.279Z,67.02
2022-10-06T23:33:36.123Z,66.96
2022-10-06T23:36:05.324Z,66.81
2022-10-06T23:38:32.017Z,67.31
2022-10-06T23:40:58.599Z,66.92
2022-10-06T23:43:25.211Z,66.88
2022-10-06T23:45:51.829Z,66.88
2022-10-06T23:48:18.497Z,66.77
2022-10-06T23:51:06.629Z,67.13
2022-10-06T23:53:34.049Z,67.03
2022-10-06T23:56:00.616Z,67.42
2022-10-06T23:58:27.566Z,67.39
